Henrik Krøyer Holme

KL  EN  DA
ASIAQ
Weather Now GREENLAND SURVEY
Updated [WGT/WGST] Temperature [°C] Wind [m/s] Air pressure [hPa] Relative humidity [%] Precipitation [mm]
Present Wind chill Speed Max
30.11 16:00-20,4-26,42,1 ⇓3,1101061n/a
30.11 15:00-20,4-31,15,7 ⇓8,2101063n/a
30.11 14:00-20,5-32,06,7 ⇓9,3101062n/a
30.11 13:00-20,6-31,35,7 ⇓7,7100962n/a
30.11 12:00-19,9-29,44,6 ⇓5,1100963n/a
30.11 11:00-20,1-29,14,1 ⇓5,7100868n/a
30.11 10:00-20,4-28,83,6 ⇓4,6100863n/a
30.11 09:00-20,3-29,94,6 ⇓5,1100772n/a
30.11 08:00-20,1-28,53,6 ⇓4,1100779n/a
30.11 07:00-19,5-24,01,5 ⇓2,6100781n/a
30.11 06:00-17,30,00,5 ⇙1,0100683n/a
30.11 05:00-19,0-24,82,1 ⇒2,6100682n/a
30.11 04:00-18,40,00,5 ⇗1,0100582n/a
30.11 03:00-17,6-21,81,5 ⇒2,6100583n/a
30.11 02:00-19,2-23,61,5 ⇓1,5100482n/a
30.11 01:00-19,8-25,72,1 ⇒2,1100481n/a
30.11 00:00-19,50,01,0 ⇘1,5100382n/a
29.11 23:00-19,80,00,5 ⇒0,5100382n/a
29.11 22:00-18,1-22,41,5 ⇐2,6100283n/a
29.11 21:00-18,5-25,93,1 ⇖3,6100284n/a
29.11 20:00-17,6-26,54,6 ⇙7,2100175n/a
29.11 19:00-17,9-27,45,1 ⇓6,2100177n/a
29.11 18:00-18,2-27,34,6 ⇓5,1100074n/a
29.11 17:00-17,8-27,35,1 ⇓5,7100072n/a
29.11 16:00-17,5-25,94,1 ⇓5,199972n/a
Position: (80.649444444,-13.7119444444)

[Back]